F17

Center Municipal Airport

Center, Texas, USA
METAR KF17 162123Z 18005KT 10SM CLR 20/02 A3013
Observed Flight Rules
Nov-16 @ 21:23 UTC (12 hours ago) Visual Flight Rules
Wind Visibility Clouds
180° at 5 knots 10 miles
  • Clear skies
Temperatures Readings
Current 20°C / 68°F
Dewpoint 2°C / 36°F
Humidity 30%
Altimeter 30.13" Hg
Pressure 1020 hPa
Elevation 97
METAR KF17 162123Z 18005KT 10SM CLR 20/02 A3013
Observed Flight Rules
Nov-16 @ 21:23 UTC
(12 hours ago)
VFR
Wind Visibility
180° at 5 knots 10 miles
Clouds
  • Clear skies
Temperature Dewpoint
20°C / 68°F 2°C / 36°F
Humidity Altimeter Pressure
30% 30.13" Hg 1020 hPa